sensor_id;sensor_type;location;lat;lon;timestamp;pressure;altitude;pressure_sealevel;temperature;humidity
26112;BME280;13829;48.990;8.346;2023-04-26T00:01:36;100620.25;;;8.23;100.00
26112;BME280;13829;48.990;8.346;2023-04-26T00:04:04;100624.50;;;8.15;100.00
26112;BME280;13829;48.990;8.346;2023-04-26T00:06:30;100622.72;;;8.14;100.00
26112;BME280;13829;48.990;8.346;2023-04-26T00:08:59;100621.91;;;8.18;100.00
26112;BME280;13829;48.990;8.346;2023-04-26T00:11:26;100622.72;;;8.14;100.00
26112;BME280;13829;48.990;8.346;2023-04-26T00:13:53;100621.66;;;8.04;100.00
26112;BME280;13829;48.990;8.346;2023-04-26T00:16:20;100615.38;;;7.94;100.00
26112;BME280;13829;48.990;8.346;2023-04-26T00:18:46;100619.69;;;7.92;100.00
26112;BME280;13829;48.990;8.346;2023-04-26T00:21:13;100622.19;;;7.86;100.00
26112;BME280;13829;48.990;8.346;2023-04-26T00:23:40;100625.53;;;7.79;100.00
26112;BME280;13829;48.990;8.346;2023-04-26T00:26:09;100631.53;;;7.73;100.00
26112;BME280;13829;48.990;8.346;2023-04-26T00:28:36;100620.25;;;7.76;100.00
26112;BME280;13829;48.990;8.346;2023-04-26T00:31:03;100613.31;;;7.78;100.00
26112;BME280;13829;48.990;8.346;2023-04-26T00:33:30;100615.13;;;7.80;100.00
26112;BME280;13829;48.990;8.346;2023-04-26T00:35:57;100613.31;;;7.78;100.00
26112;BME280;13829;48.990;8.346;2023-04-26T00:38:24;100611.56;;;7.78;100.00
26112;BME280;13829;48.990;8.346;2023-04-26T00:40:51;100605.53;;;7.82;100.00
26112;BME280;13829;48.990;8.346;2023-04-26T00:43:19;100604.84;;;7.91;100.00
26112;BME280;13829;48.990;8.346;2023-04-26T00:45:46;100604.94;;;7.97;100.00
26112;BME280;13829;48.990;8.346;2023-04-26T00:48:14;100616.00;;;7.82;100.00
26112;BME280;13829;48.990;8.346;2023-04-26T00:50:42;100615.50;;;8.00;100.00
26112;BME280;13829;48.990;8.346;2023-04-26T00:53:11;100615.13;;;7.82;100.00
26112;BME280;13829;48.990;8.346;2023-04-26T00:55:39;100613.50;;;7.89;100.00
26112;BME280;13829;48.990;8.346;2023-04-26T00:58:06;100609.94;;;7.85;100.00
26112;BME280;13829;48.990;8.346;2023-04-26T01:00:34;100612.50;;;7.80;100.00
26112;BME280;13829;48.990;8.346;2023-04-26T01:03:02;100612.91;;;7.58;100.00
26112;BME280;13829;48.990;8.346;2023-04-26T01:05:29;100612.69;;;7.47;100.00
26112;BME280;13829;48.990;8.346;2023-04-26T01:07:56;100610.72;;;7.37;100.00
26112;BME280;13829;48.990;8.346;2023-04-26T01:10:24;100613.38;;;7.40;100.00
26112;BME280;13829;48.990;8.346;2023-04-26T01:12:52;100609.09;;;7.42;100.00
26112;BME280;13829;48.990;8.346;2023-04-26T01:15:20;100617.03;;;7.45;100.00
26112;BME280;13829;48.990;8.346;2023-04-26T01:17:48;100618.44;;;7.30;100.00
26112;BME280;13829;48.990;8.346;2023-04-26T01:20:15;100616.81;;;7.35;100.00
26112;BME280;13829;48.990;8.346;2023-04-26T01:22:43;100619.28;;;7.29;100.00
26112;BME280;13829;48.990;8.346;2023-04-26T01:25:11;100617.59;;;7.31;100.00
26112;BME280;13829;48.990;8.346;2023-04-26T01:27:39;100614.03;;;7.28;100.00
26112;BME280;13829;48.990;8.346;2023-04-26T01:30:08;100609.38;;;7.14;100.00
26112;BME280;13829;48.990;8.346;2023-04-26T01:32:35;100601.44;;;7.10;100.00
26112;BME280;13829;48.990;8.346;2023-04-26T01:35:02;100597.75;;;7.01;100.00
26112;BME280;13829;48.990;8.346;2023-04-26T01:37:30;100601.22;;;7.00;100.00
26112;BME280;13829;48.990;8.346;2023-04-26T01:39:58;100602.97;;;7.01;100.00
26112;BME280;13829;48.990;8.346;2023-04-26T01:42:25;100608.19;;;7.01;100.00
26112;BME280;13829;48.990;8.346;2023-04-26T01:44:52;100606.53;;;7.04;100.00
26112;BME280;13829;48.990;8.346;2023-04-26T01:47:19;100609.78;;;6.93;100.00
26112;BME280;13829;48.990;8.346;2023-04-26T01:49:46;100612.38;;;6.92;100.00
26112;BME280;13829;48.990;8.346;2023-04-26T01:52:13;100606.31;;;6.94;100.00
26112;BME280;13829;48.990;8.346;2023-04-26T01:54:41;100609.50;;;6.82;100.00
26112;BME280;13829;48.990;8.346;2023-04-26T01:57:11;100612.78;;;6.74;100.00
26112;BME280;13829;48.990;8.346;2023-04-26T01:59:38;100609.28;;;6.72;100.00
26112;BME280;13829;48.990;8.346;2023-04-26T02:02:05;100621.25;;;6.63;100.00
26112;BME280;13829;48.990;8.346;2023-04-26T02:04:32;100612.28;;;6.52;100.00
26112;BME280;13829;48.990;8.346;2023-04-26T02:06:59;100618.22;;;6.45;100.00
26112;BME280;13829;48.990;8.346;2023-04-26T02:09:26;100618.75;;;6.33;100.00
26112;BME280;13829;48.990;8.346;2023-04-26T02:11:53;100616.78;;;6.24;100.00
26112;BME280;13829;48.990;8.346;2023-04-26T02:14:21;100617.59;;;6.22;100.00
26112;BME280;13829;48.990;8.346;2023-04-26T02:16:48;100612.84;;;6.07;100.00
26112;BME280;13829;48.990;8.346;2023-04-26T02:19:16;100613.66;;;6.04;100.00
26112;BME280;13829;48.990;8.346;2023-04-26T02:21:51;100616.16;;;5.99;100.00
26112;BME280;13829;48.990;8.346;2023-04-26T02:24:18;100615.94;;;5.93;100.00
26112;BME280;13829;48.990;8.346;2023-04-26T02:26:46;100624.63;;;5.92;100.00
26112;BME280;13829;48.990;8.346;2023-04-26T02:29:13;100625.38;;;5.88;100.00
26112;BME280;13829;48.990;8.346;2023-04-26T02:31:44;100628.78;;;5.85;100.00
26112;BME280;13829;48.990;8.346;2023-04-26T02:34:13;100628.06;;;5.91;100.00
26112;BME280;13829;48.990;8.346;2023-04-26T02:36:40;100627.25;;;5.94;100.00
26112;BME280;13829;48.990;8.346;2023-04-26T02:39:07;100627.94;;;6.17;100.00
26112;BME280;13829;48.990;8.346;2023-04-26T02:41:34;100629.00;;;6.25;100.00
26112;BME280;13829;48.990;8.346;2023-04-26T02:44:01;100621.94;;;6.21;100.00
26112;BME280;13829;48.990;8.346;2023-04-26T02:46:28;100619.53;;;6.29;100.00
26112;BME280;13829;48.990;8.346;2023-04-26T02:48:56;100629.19;;;6.31;100.00
26112;BME280;13829;48.990;8.346;2023-04-26T02:51:23;100632.50;;;6.26;100.00
26112;BME280;13829;48.990;8.346;2023-04-26T02:53:50;100628.25;;;6.29;100.00
26112;BME280;13829;48.990;8.346;2023-04-26T02:56:17;100624.75;;;6.29;100.00
26112;BME280;13829;48.990;8.346;2023-04-26T02:58:44;100631.97;;;6.39;100.00
26112;BME280;13829;48.990;8.346;2023-04-26T03:01:12;100629.34;;;6.38;100.00
26112;BME280;13829;48.990;8.346;2023-04-26T03:03:39;100624.97;;;6.38;100.00
26112;BME280;13829;48.990;8.346;2023-04-26T03:06:08;100628.53;;;6.40;100.00
26112;BME280;13829;48.990;8.346;2023-04-26T03:08:35;100626.03;;;6.45;100.00
26112;BME280;13829;48.990;8.346;2023-04-26T03:11:02;100627.94;;;6.52;100.00
26112;BME280;13829;48.990;8.346;2023-04-26T03:13:29;100623.63;;;6.52;100.00
26112;BME280;13829;48.990;8.346;2023-04-26T03:15:56;100621.06;;;6.56;100.00
26112;BME280;13829;48.990;8.346;2023-04-26T03:18:23;100616.63;;;6.51;100.00
26112;BME280;13829;48.990;8.346;2023-04-26T03:20:51;100620.88;;;6.48;100.00
26112;BME280;13829;48.990;8.346;2023-04-26T03:23:19;100619.63;;;6.68;100.00
26112;BME280;13829;48.990;8.346;2023-04-26T03:25:49;100621.72;;;6.47;100.00
26112;BME280;13829;48.990;8.346;2023-04-26T03:28:16;100608.66;;;6.47;100.00
26112;BME280;13829;48.990;8.346;2023-04-26T03:30:43;100620.56;;;6.35;100.00
26112;BME280;13829;48.990;8.346;2023-04-26T03:33:11;100622.19;;;6.30;100.00
26112;BME280;13829;48.990;8.346;2023-04-26T03:35:39;100621.13;;;6.24;100.00
26112;BME280;13829;48.990;8.346;2023-04-26T03:38:06;100627.06;;;6.18;100.00
26112;BME280;13829;48.990;8.346;2023-04-26T03:40:34;100624.66;;;6.26;100.00
26112;BME280;13829;48.990;8.346;2023-04-26T03:43:01;100629.63;;;6.15;100.00
26112;BME280;13829;48.990;8.346;2023-04-26T03:45:28;100637.28;;;6.09;100.00
26112;BME280;13829;48.990;8.346;2023-04-26T03:47:55;100626.59;;;5.99;100.00
26112;BME280;13829;48.990;8.346;2023-04-26T03:50:22;100628.06;;;5.91;100.00
26112;BME280;13829;48.990;8.346;2023-04-26T03:52:49;100626.25;;;5.88;100.00
26112;BME280;13829;48.990;8.346;2023-04-26T03:55:16;100629.63;;;5.84;100.00
26112;BME280;13829;48.990;8.346;2023-04-26T03:57:44;100621.56;;;5.75;100.00
26112;BME280;13829;48.990;8.346;2023-04-26T04:00:13;100620.59;;;5.71;100.00
26112;BME280;13829;48.990;8.346;2023-04-26T04:02:40;100622.03;;;5.62;100.00
26112;BME280;13829;48.990;8.346;2023-04-26T04:05:08;100619.28;;;5.57;100.00
26112;BME280;13829;48.990;8.346;2023-04-26T04:07:35;100614.75;;;5.50;100.00
26112;BME280;13829;48.990;8.346;2023-04-26T04:10:02;100620.66;;;5.44;100.00
26112;BME280;13829;48.990;8.346;2023-04-26T04:12:29;100620.59;;;5.41;100.00
26112;BME280;13829;48.990;8.346;2023-04-26T04:14:58;100625.91;;;5.46;100.00
26112;BME280;13829;48.990;8.346;2023-04-26T04:17:25;100629.94;;;5.65;100.00
26112;BME280;13829;48.990;8.346;2023-04-26T04:19:52;100636.72;;;5.58;100.00
26112;BME280;13829;48.990;8.346;2023-04-26T04:22:19;100628.63;;;5.49;100.00
26112;BME280;13829;48.990;8.346;2023-04-26T04:24:46;100625.13;;;5.48;100.00
26112;BME280;13829;48.990;8.346;2023-04-26T04:27:13;100630.28;;;5.47;100.00
26112;BME280;13829;48.990;8.346;2023-04-26T04:29:40;100626.94;;;5.51;100.00
26112;BME280;13829;48.990;8.346;2023-04-26T04:32:09;100629.69;;;5.55;100.00
26112;BME280;13829;48.990;8.346;2023-04-26T04:34:36;100632.06;;;5.48;100.00
26112;BME280;13829;48.990;8.346;2023-04-26T04:37:04;100635.50;;;5.47;100.00
26112;BME280;13829;48.990;8.346;2023-04-26T04:39:30;100636.28;;;5.43;100.00
26112;BME280;13829;48.990;8.346;2023-04-26T04:41:57;100633.47;;;5.36;100.00
26112;BME280;13829;48.990;8.346;2023-04-26T04:44:25;100638.78;;;5.39;100.00
26112;BME280;13829;48.990;8.346;2023-04-26T04:46:52;100645.38;;;5.57;100.00
26112;BME280;13829;48.990;8.346;2023-04-26T04:49:20;100643.59;;;5.56;100.00
26112;BME280;13829;48.990;8.346;2023-04-26T04:51:49;100649.91;;;5.63;100.00
26112;BME280;13829;48.990;8.346;2023-04-26T04:54:17;100658.75;;;5.39;100.00
26112;BME280;13829;48.990;8.346;2023-04-26T04:56:44;100656.00;;;5.34;100.00
26112;BME280;13829;48.990;8.346;2023-04-26T04:59:11;100654.25;;;5.33;100.00
26112;BME280;13829;48.990;8.346;2023-04-26T05:01:38;100653.78;;;5.47;100.00
26112;BME280;13829;48.990;8.346;2023-04-26T05:04:05;100658.22;;;5.51;100.00
26112;BME280;13829;48.990;8.346;2023-04-26T05:06:34;100660.72;;;5.46;100.00
26112;BME280;13829;48.990;8.346;2023-04-26T05:09:01;100661.41;;;5.41;100.00
26112;BME280;13829;48.990;8.346;2023-04-26T05:11:30;100664.97;;;5.43;100.00
26112;BME280;13829;48.990;8.346;2023-04-26T05:13:57;100666.84;;;5.48;100.00
26112;BME280;13829;48.990;8.346;2023-04-26T05:16:24;100660.84;;;5.51;100.00
26112;BME280;13829;48.990;8.346;2023-04-26T05:18:52;100664.34;;;5.51;100.00
26112;BME280;13829;48.990;8.346;2023-04-26T05:21:20;100666.25;;;5.57;100.00
26112;BME280;13829;48.990;8.346;2023-04-26T05:23:49;100673.38;;;5.63;100.00
26112;BME280;13829;48.990;8.346;2023-04-26T05:26:16;100674.59;;;5.74;100.00
26112;BME280;13829;48.990;8.346;2023-04-26T05:28:43;100670.50;;;5.84;100.00
26112;BME280;13829;48.990;8.346;2023-04-26T05:31:10;100677.66;;;5.91;100.00
26112;BME280;13829;48.990;8.346;2023-04-26T05:33:38;100669.38;;;6.04;100.00
26112;BME280;13829;48.990;8.346;2023-04-26T05:36:06;100674.19;;;6.21;100.00
26112;BME280;13829;48.990;8.346;2023-04-26T05:38:34;100675.25;;;6.29;100.00
26112;BME280;13829;48.990;8.346;2023-04-26T05:41:02;100670.97;;;6.31;100.00
26112;BME280;13829;48.990;8.346;2023-04-26T05:43:29;100675.63;;;6.43;100.00
26112;BME280;13829;48.990;8.346;2023-04-26T05:45:56;100677.75;;;6.58;100.00
26112;BME280;13829;48.990;8.346;2023-04-26T05:48:24;100677.22;;;6.72;100.00
26112;BME280;13829;48.990;8.346;2023-04-26T05:50:51;100678.47;;;6.88;100.00
26112;BME280;13829;48.990;8.346;2023-04-26T05:53:19;100681.38;;;6.98;100.00
26112;BME280;13829;48.990;8.346;2023-04-26T05:55:46;100686.03;;;7.12;100.00
26112;BME280;13829;48.990;8.346;2023-04-26T05:58:14;100688.19;;;7.28;100.00
26112;BME280;13829;48.990;8.346;2023-04-26T06:00:41;100691.94;;;7.41;100.00
26112;BME280;13829;48.990;8.346;2023-04-26T06:03:08;100685.16;;;7.51;100.00
26112;BME280;13829;48.990;8.346;2023-04-26T06:05:36;100681.53;;;7.44;100.00
26112;BME280;13829;48.990;8.346;2023-04-26T06:08:04;100690.69;;;7.63;100.00
26112;BME280;13829;48.990;8.346;2023-04-26T06:10:31;100688.19;;;7.70;100.00
26112;BME280;13829;48.990;8.346;2023-04-26T06:12:58;100700.09;;;7.55;98.35
26112;BME280;13829;48.990;8.346;2023-04-26T06:15:26;100703.47;;;7.49;94.64
26112;BME280;13829;48.990;8.346;2023-04-26T06:17:53;100703.03;;;7.69;89.56
26112;BME280;13829;48.990;8.346;2023-04-26T06:20:21;100708.81;;;7.54;90.39
26112;BME280;13829;48.990;8.346;2023-04-26T06:22:48;100708.25;;;7.69;87.28
26112;BME280;13829;48.990;8.346;2023-04-26T06:25:15;100707.69;;;7.84;88.99
26112;BME280;13829;48.990;8.346;2023-04-26T06:27:42;100708.31;;;8.15;87.67
26112;BME280;13829;48.990;8.346;2023-04-26T06:30:10;100707.31;;;8.08;87.80
26112;BME280;13829;48.990;8.346;2023-04-26T06:32:40;100701.28;;;8.12;88.81
26112;BME280;13829;48.990;8.346;2023-04-26T06:35:08;100703.09;;;8.15;85.59
26112;BME280;13829;48.990;8.346;2023-04-26T06:37:36;100702.97;;;8.09;81.81
26112;BME280;13829;48.990;8.346;2023-04-26T06:40:05;100708.31;;;8.15;84.89
26112;BME280;13829;48.990;8.346;2023-04-26T06:42:32;100703.09;;;8.15;82.43
26112;BME280;13829;48.990;8.346;2023-04-26T06:44:59;100704.06;;;8.20;84.48
26112;BME280;13829;48.990;8.346;2023-04-26T06:47:26;100694.97;;;8.47;84.56
26112;BME280;13829;48.990;8.346;2023-04-26T06:49:54;100680.97;;;10.32;84.42
26112;BME280;13829;48.990;8.346;2023-04-26T06:52:21;100681.09;;;11.52;66.58
26112;BME280;13829;48.990;8.346;2023-04-26T06:54:48;100683.22;;;13.33;60.54
26112;BME280;13829;48.990;8.346;2023-04-26T06:57:15;100674.56;;;14.88;53.38
26112;BME280;13829;48.990;8.346;2023-04-26T06:59:42;100677.28;;;15.65;48.75
26112;BME280;13829;48.990;8.346;2023-04-26T07:02:11;100676.31;;;15.74;49.60
26112;BME280;13829;48.990;8.346;2023-04-26T07:04:38;100663.03;;;17.01;44.71
26112;BME280;13829;48.990;8.346;2023-04-26T07:07:06;100653.53;;;18.23;42.04
26112;BME280;13829;48.990;8.346;2023-04-26T07:09:33;100643.81;;;18.21;40.30
26112;BME280;13829;48.990;8.346;2023-04-26T07:12:00;100643.69;;;18.65;39.04
26112;BME280;13829;48.990;8.346;2023-04-26T07:14:27;100643.50;;;18.72;39.54
26112;BME280;13829;48.990;8.346;2023-04-26T07:16:54;100640.47;;;19.54;39.40
26112;BME280;13829;48.990;8.346;2023-04-26T07:19:21;100643.03;;;20.47;37.00
26112;BME280;13829;48.990;8.346;2023-04-26T07:21:48;100633.91;;;20.81;35.86
26112;BME280;13829;48.990;8.346;2023-04-26T07:24:16;100645.47;;;20.26;35.30
26112;BME280;13829;48.990;8.346;2023-04-26T07:26:43;100635.94;;;20.74;37.58
26112;BME280;13829;48.990;8.346;2023-04-26T07:29:10;100642.31;;;20.68;35.29
26112;BME280;13829;48.990;8.346;2023-04-26T07:31:37;100648.28;;;19.60;36.44
26112;BME280;13829;48.990;8.346;2023-04-26T07:34:04;100657.13;;;18.96;36.60
26112;BME280;13829;48.990;8.346;2023-04-26T07:36:31;100650.44;;;20.39;35.83
26112;BME280;13829;48.990;8.346;2023-04-26T07:38:58;100648.94;;;20.57;36.89
26112;BME280;13829;48.990;8.346;2023-04-26T07:41:26;100648.56;;;20.41;37.46
26112;BME280;13829;48.990;8.346;2023-04-26T07:43:53;100657.34;;;19.86;38.31
26112;BME280;13829;48.990;8.346;2023-04-26T07:46:20;100656.00;;;19.38;37.81
26112;BME280;13829;48.990;8.346;2023-04-26T07:48:47;100656.50;;;20.15;37.79
26112;BME280;13829;48.990;8.346;2023-04-26T07:51:14;100644.25;;;20.65;35.97
26112;BME280;13829;48.990;8.346;2023-04-26T07:53:41;100665.56;;;18.40;38.21
26112;BME280;13829;48.990;8.346;2023-04-26T07:56:08;100657.25;;;19.58;39.93
26112;BME280;13829;48.990;8.346;2023-04-26T07:58:37;100647.66;;;20.68;37.25
26112;BME280;13829;48.990;8.346;2023-04-26T08:01:05;100644.00;;;20.73;35.75
26112;BME280;13829;48.990;8.346;2023-04-26T08:03:32;100653.63;;;19.60;35.61
26112;BME280;13829;48.990;8.346;2023-04-26T08:05:59;100654.56;;;19.26;35.08
26112;BME280;13829;48.990;8.346;2023-04-26T08:08:26;100656.59;;;19.16;37.71
26112;BME280;13829;48.990;8.346;2023-04-26T08:10:54;100654.47;;;19.62;38.87
26112;BME280;13829;48.990;8.346;2023-04-26T08:13:21;100650.59;;;19.41;36.26
26112;BME280;13829;48.990;8.346;2023-04-26T08:15:50;100652.44;;;19.39;37.67
26112;BME280;13829;48.990;8.346;2023-04-26T08:18:17;100652.38;;;19.09;35.63
26112;BME280;13829;48.990;8.346;2023-04-26T08:20:44;100654.59;;;18.15;37.44
26112;BME280;13829;48.990;8.346;2023-04-26T08:23:11;100659.84;;;18.57;38.16
26112;BME280;13829;48.990;8.346;2023-04-26T08:25:39;100654.44;;;18.98;38.34
26112;BME280;13829;48.990;8.346;2023-04-26T08:28:05;100658.50;;;17.98;38.68
26112;BME280;13829;48.990;8.346;2023-04-26T08:30:33;100656.47;;;16.69;40.61
26112;BME280;13829;48.990;8.346;2023-04-26T08:33:02;100664.09;;;16.89;42.12
26112;BME280;13829;48.990;8.346;2023-04-26T08:35:29;100665.22;;;17.27;44.77
26112;BME280;13829;48.990;8.346;2023-04-26T08:37:56;100663.31;;;17.79;42.22
26112;BME280;13829;48.990;8.346;2023-04-26T08:40:24;100655.69;;;17.17;39.27
26112;BME280;13829;48.990;8.346;2023-04-26T08:42:51;100663.66;;;16.01;39.62
26112;BME280;13829;48.990;8.346;2023-04-26T08:45:20;100653.00;;;16.04;41.60
26112;BME280;13829;48.990;8.346;2023-04-26T08:47:48;100651.50;;;16.47;43.04
26112;BME280;13829;48.990;8.346;2023-04-26T08:50:19;100647.81;;;17.10;42.10
26112;BME280;13829;48.990;8.346;2023-04-26T08:52:50;100641.72;;;17.05;37.81
26112;BME280;13829;48.990;8.346;2023-04-26T08:55:18;100640.06;;;16.98;38.70
26112;BME280;13829;48.990;8.346;2023-04-26T08:57:47;100655.84;;;15.89;39.70
26112;BME280;13829;48.990;8.346;2023-04-26T09:00:16;100640.75;;;15.14;40.53
26112;BME280;13829;48.990;8.346;2023-04-26T09:02:47;100645.56;;;14.69;41.03
26112;BME280;13829;48.990;8.346;2023-04-26T09:05:17;100637.66;;;14.71;40.53
26112;BME280;13829;48.990;8.346;2023-04-26T09:07:49;100635.44;;;15.14;41.98
26112;BME280;13829;48.990;8.346;2023-04-26T09:10:19;100637.69;;;15.52;44.04
26112;BME280;13829;48.990;8.346;2023-04-26T09:12:50;100639.19;;;15.74;42.12
26112;BME280;13829;48.990;8.346;2023-04-26T09:15:17;100635.38;;;16.00;39.71
26112;BME280;13829;48.990;8.346;2023-04-26T09:17:46;100638.84;;;16.02;40.10
26112;BME280;13829;48.990;8.346;2023-04-26T09:20:21;100639.25;;;15.71;39.93
26112;BME280;13829;48.990;8.346;2023-04-26T09:22:50;100640.38;;;14.57;40.56
26112;BME280;13829;48.990;8.346;2023-04-26T09:25:27;100640.19;;;14.81;41.41
26112;BME280;13829;48.990;8.346;2023-04-26T09:27:54;100634.78;;;14.94;41.75
26112;BME280;13829;48.990;8.346;2023-04-26T09:30:22;100634.28;;;15.43;43.52
26112;BME280;13829;48.990;8.346;2023-04-26T09:32:51;100632.19;;;15.70;43.70
26112;BME280;13829;48.990;8.346;2023-04-26T09:35:29;100622.63;;;16.24;42.07
26112;BME280;13829;48.990;8.346;2023-04-26T09:37:59;100631.03;;;15.93;39.64
26112;BME280;13829;48.990;8.346;2023-04-26T09:40:28;100629.84;;;15.44;40.20
26112;BME280;13829;48.990;8.346;2023-04-26T09:42:57;100625.94;;;15.74;43.80
26112;BME280;13829;48.990;8.346;2023-04-26T09:45:25;100632.78;;;15.18;40.78
26112;BME280;13829;48.990;8.346;2023-04-26T09:47:53;100621.59;;;14.88;42.82
26112;BME280;13829;48.990;8.346;2023-04-26T09:50:29;100629.22;;;15.19;42.84
26112;BME280;13829;48.990;8.346;2023-04-26T09:52:58;100630.88;;;15.32;40.58
26112;BME280;13829;48.990;8.346;2023-04-26T09:55:26;100630.34;;;14.94;39.59
26112;BME280;13829;48.990;8.346;2023-04-26T09:57:54;100635.56;;;15.05;39.99
26112;BME280;13829;48.990;8.346;2023-04-26T10:00:23;100630.22;;;15.08;40.27
26112;BME280;13829;48.990;8.346;2023-04-26T10:02:52;100631.19;;;15.01;40.61
26112;BME280;13829;48.990;8.346;2023-04-26T10:05:20;100628.53;;;15.01;39.16
26112;BME280;13829;48.990;8.346;2023-04-26T10:07:49;100624.03;;;15.09;37.65
26112;BME280;13829;48.990;8.346;2023-04-26T10:10:17;100621.84;;;15.48;38.75
26112;BME280;13829;48.990;8.346;2023-04-26T10:12:45;100617.56;;;15.35;35.87
26112;BME280;13829;48.990;8.346;2023-04-26T10:15:14;100610.84;;;15.79;37.29
26112;BME280;13829;48.990;8.346;2023-04-26T10:17:41;100611.03;;;15.64;35.04
26112;BME280;13829;48.990;8.346;2023-04-26T10:20:12;100604.44;;;15.26;35.18
26112;BME280;13829;48.990;8.346;2023-04-26T10:22:44;100599.41;;;15.74;36.07
26112;BME280;13829;48.990;8.346;2023-04-26T10:25:13;100603.72;;;15.86;37.71
26112;BME280;13829;48.990;8.346;2023-04-26T10:27:48;100604.59;;;15.87;42.42
26112;BME280;13829;48.990;8.346;2023-04-26T10:30:17;100603.53;;;16.00;39.96
26112;BME280;13829;48.990;8.346;2023-04-26T10:33:15;100605.38;;;15.95;38.48
26112;BME280;13829;48.990;8.346;2023-04-26T10:36:06;100600.22;;;15.79;39.70
26112;BME280;13829;48.990;8.346;2023-04-26T10:38:36;100599.56;;;15.63;42.50
26112;BME280;13829;48.990;8.346;2023-04-26T10:41:36;100602.28;;;15.59;43.08
26112;BME280;13829;48.990;8.346;2023-04-26T10:44:37;100600.50;;;15.61;38.70
26112;BME280;13829;48.990;8.346;2023-04-26T10:47:06;100599.31;;;15.85;38.96
26112;BME280;13829;48.990;8.346;2023-04-26T10:49:44;100596.81;;;15.71;38.53
26112;BME280;13829;48.990;8.346;2023-04-26T10:52:14;100596.91;;;15.63;41.03
26112;BME280;13829;48.990;8.346;2023-04-26T10:54:53;100591.50;;;15.71;41.44
26112;BME280;13829;48.990;8.346;2023-04-26T10:57:46;100582.56;;;15.81;42.00
26112;BME280;13829;48.990;8.346;2023-04-26T11:00:28;100571.50;;;16.12;39.39
26112;BME280;13829;48.990;8.346;2023-04-26T11:03:00;100572.31;;;16.18;36.69
26112;BME280;13829;48.990;8.346;2023-04-26T11:05:47;100566.00;;;16.25;35.93
26112;BME280;13829;48.990;8.346;2023-04-26T11:08:18;100557.41;;;16.10;37.58
26112;BME280;13829;48.990;8.346;2023-04-26T11:10:50;100554.19;;;15.87;38.38
26112;BME280;13829;48.990;8.346;2023-04-26T11:13:19;100559.56;;;15.84;37.35
26112;BME280;13829;48.990;8.346;2023-04-26T11:15:46;100559.81;;;15.60;37.18
26112;BME280;13829;48.990;8.346;2023-04-26T11:18:18;100549.94;;;15.73;37.69
26112;BME280;13829;48.990;8.346;2023-04-26T11:20:46;100548.13;;;15.78;38.15
26112;BME280;13829;48.990;8.346;2023-04-26T11:23:14;100543.44;;;15.96;40.05
26112;BME280;13829;48.990;8.346;2023-04-26T11:25:41;100542.34;;;16.11;37.82
26112;BME280;13829;48.990;8.346;2023-04-26T11:28:08;100543.13;;;16.18;39.67
26112;BME280;13829;48.990;8.346;2023-04-26T11:30:36;100528.94;;;16.19;38.18
26112;BME280;13829;48.990;8.346;2023-04-26T11:33:03;100529.06;;;16.11;37.17
26112;BME280;13829;48.990;8.346;2023-04-26T11:35:33;100525.59;;;16.09;41.17
26112;BME280;13829;48.990;8.346;2023-04-26T11:38:04;100523.84;;;16.06;36.76
26112;BME280;13829;48.990;8.346;2023-04-26T11:40:32;100531.41;;;15.70;37.55
26112;BME280;13829;48.990;8.346;2023-04-26T11:43:03;100526.97;;;15.05;36.04
26112;BME280;13829;48.990;8.346;2023-04-26T11:45:31;100533.34;;;15.59;40.30
26112;BME280;13829;48.990;8.346;2023-04-26T11:48:04;100521.75;;;15.66;40.45
26112;BME280;13829;48.990;8.346;2023-04-26T11:50:33;100516.25;;;15.80;38.50
26112;BME280;13829;48.990;8.346;2023-04-26T11:53:05;100524.06;;;15.91;39.50
26112;BME280;13829;48.990;8.346;2023-04-26T11:55:34;100515.81;;;16.11;38.18
26112;BME280;13829;48.990;8.346;2023-04-26T11:58:10;100525.66;;;16.04;35.97
26112;BME280;13829;48.990;8.346;2023-04-26T12:00:55;100517.66;;;16.06;38.22
26112;BME280;13829;48.990;8.346;2023-04-26T12:03:29;100529.72;;;16.27;39.63
26112;BME280;13829;48.990;8.346;2023-04-26T12:05:56;100526.38;;;16.14;36.67
26112;BME280;13829;48.990;8.346;2023-04-26T12:08:24;100520.84;;;16.26;35.46
26112;BME280;13829;48.990;8.346;2023-04-26T12:10:51;100524.22;;;16.38;36.72
26112;BME280;13829;48.990;8.346;2023-04-26T12:13:19;100514.50;;;15.79;35.73
26112;BME280;13829;48.990;8.346;2023-04-26T12:15:46;100515.91;;;16.06;34.80
26112;BME280;13829;48.990;8.346;2023-04-26T12:18:15;100522.56;;;15.71;35.67
26112;BME280;13829;48.990;8.346;2023-04-26T12:20:44;100511.75;;;15.88;38.45
26112;BME280;13829;48.990;8.346;2023-04-26T12:23:14;100526.38;;;15.52;35.71
26112;BME280;13829;48.990;8.346;2023-04-26T12:25:51;100515.28;;;15.22;36.63
26112;BME280;13829;48.990;8.346;2023-04-26T12:28:20;100511.78;;;15.18;37.08
26112;BME280;13829;48.990;8.346;2023-04-26T12:30:47;100517.97;;;15.20;39.22
26112;BME280;13829;48.990;8.346;2023-04-26T12:33:15;100515.28;;;15.22;37.20
26112;BME280;13829;48.990;8.346;2023-04-26T12:35:45;100510.28;;;15.67;39.43
26112;BME280;13829;48.990;8.346;2023-04-26T12:38:12;100499.31;;;15.92;39.10
26112;BME280;13829;48.990;8.346;2023-04-26T12:40:41;100496.06;;;15.71;35.67
26112;BME280;13829;48.990;8.346;2023-04-26T12:43:08;100502.84;;;15.91;35.08
26112;BME280;13829;48.990;8.346;2023-04-26T12:45:36;100503.41;;;16.13;39.26
26112;BME280;13829;48.990;8.346;2023-04-26T12:48:03;100493.97;;;15.95;39.19
26112;BME280;13829;48.990;8.346;2023-04-26T12:50:31;100498.53;;;15.85;37.85
26112;BME280;13829;48.990;8.346;2023-04-26T12:52:59;100499.28;;;15.95;37.31
26112;BME280;13829;48.990;8.346;2023-04-26T12:55:26;100499.75;;;16.19;36.97
26112;BME280;13829;48.990;8.346;2023-04-26T12:57:53;100496.19;;;16.23;37.64